Time;durP1;ratioP1;P1;durP2;ratioP2;P2;SDS_P1;SDS_P2;PMS_P1;PMS_P2;Temp;Humidity;BMP_temperature;BMP_pressure;BME280_temperature;BME280_humidity;BME280_pressure;Samples;Min_cycle;Max_cycle;Signal;HPM_P1;HPM_P2
2022/05/07 00:01:50;;;;;;;40.77;26.80;;;;;;;;;;5010746;28;20421;-55
2022/05/07 00:04:16;;;;;;;38.70;24.93;;;;;;;;;;5010829;28;20414;-51
2022/05/07 00:06:42;;;;;;;39.80;23.20;;;;;;;;;;5010774;28;20567;-53
2022/05/07 00:09:08;;;;;;;35.53;22.90;;;;;;;;;;5010732;28;20409;-53
2022/05/07 00:11:34;;;;;;;31.20;22.40;;;;;;;;;;5010945;28;20414;-52
2022/05/07 00:14:00;;;;;;;37.93;23.53;;;;;;;;;;4993122;28;20505;-53
2022/05/07 00:19:11;;;;;;;33.73;22.13;;;;;;;;;;5010711;28;20413;-54
2022/05/07 00:21:36;;;;;;;28.67;22.00;;;;;;;;;;5009622;28;20857;-51
2022/05/07 00:24:03;;;;;;;33.47;22.93;;;;;;;;;;5010662;28;20405;-61
2022/05/07 00:26:29;;;;;;;35.23;22.90;;;;;;;;;;5010460;28;20469;-62
2022/05/07 00:28:55;;;;;;;38.10;23.67;;;;;;;;;;5010543;28;20405;-63
2022/05/07 00:31:21;;;;;;;35.40;22.63;;;;;;;;;;4992861;28;20470;-62
2022/05/07 00:33:47;;;;;;;32.93;23.27;;;;;;;;;;5010445;28;20926;-52
2022/05/07 00:36:13;;;;;;;34.13;22.23;;;;;;;;;;5010706;28;20460;-52
2022/05/07 00:38:39;;;;;;;29.83;20.73;;;;;;;;;;5010323;28;20879;-52
2022/05/07 00:41:05;;;;;;;30.47;21.70;;;;;;;;;;5010217;28;20504;-54
2022/05/07 00:43:35;;;;;;;37.10;22.13;;;;;;;;;;5010336;28;20410;-50
2022/05/07 00:46:01;;;;;;;30.50;21.77;;;;;;;;;;5010042;28;20519;-56
2022/05/07 00:48:27;;;;;;;30.80;21.63;;;;;;;;;;5010256;28;20903;-59
2022/05/07 00:53:38;;;;;;;34.80;21.83;;;;;;;;;;5009948;28;20913;-50
2022/05/07 00:56:04;;;;;;;36.13;24.77;;;;;;;;;;5010122;28;20414;-56
2022/05/07 00:58:31;;;;;;;34.27;22.20;;;;;;;;;;5009940;28;20898;-52
2022/05/07 01:00:57;;;;;;;24.90;18.37;;;;;;;;;;5010033;28;20406;-50
2022/05/07 01:03:23;;;;;;;27.47;20.17;;;;;;;;;;5009971;28;20444;-55
2022/05/07 01:05:50;;;;;;;28.13;20.57;;;;;;;;;;5009859;28;20465;-64
2022/05/07 01:08:16;;;;;;;31.00;19.90;;;;;;;;;;5009960;28;20413;-67
2022/05/07 01:10:43;;;;;;;32.07;20.03;;;;;;;;;;4992440;28;20512;-60
2022/05/07 01:13:09;;;;;;;26.20;17.00;;;;;;;;;;5009914;28;20458;-69
2022/05/07 01:15:47;;;;;;;25.30;17.37;;;;;;;;;;5009974;28;20413;-69
2022/05/07 01:18:15;;;;;;;27.07;19.03;;;;;;;;;;5010134;28;20740;-60
2022/05/07 01:20:41;;;;;;;24.97;17.53;;;;;;;;;;5009807;28;20456;-66
2022/05/07 01:23:08;;;;;;;27.97;19.60;;;;;;;;;;5009718;28;20774;-51
2022/05/07 01:25:37;;;;;;;27.30;17.97;;;;;;;;;;4992255;28;20572;-60
2022/05/07 01:28:03;;;;;;;24.63;16.80;;;;;;;;;;5009709;28;20414;-54
2022/05/07 01:30:29;;;;;;;24.50;18.20;;;;;;;;;;4992248;28;20436;-52
2022/05/07 01:32:55;;;;;;;23.53;16.70;;;;;;;;;;5010788;28;20407;-64
2022/05/07 01:35:21;;;;;;;26.90;19.23;;;;;;;;;;5013264;28;20515;-52
2022/05/07 01:37:47;;;;;;;22.87;16.73;;;;;;;;;;5013143;28;20402;-58
2022/05/07 01:40:13;;;;;;;26.90;16.63;;;;;;;;;;5013188;28;20909;-54
2022/05/07 01:42:39;;;;;;;24.43;16.00;;;;;;;;;;5013176;28;20409;-51
2022/05/07 01:45:06;;;;;;;23.00;16.43;;;;;;;;;;5013077;28;20981;-56
2022/05/07 01:50:20;;;;;;;21.10;15.97;;;;;;;;;;5013280;28;20823;-53
2022/05/07 01:52:47;;;;;;;24.30;14.47;;;;;;;;;;5012987;28;20485;-51
2022/05/07 01:55:12;;;;;;;23.77;16.67;;;;;;;;;;4995495;28;20456;-55
2022/05/07 01:57:38;;;;;;;20.30;15.10;;;;;;;;;;5012797;28;20421;-52
2022/05/07 02:00:08;;;;;;;23.80;16.33;;;;;;;;;;5012840;28;20478;-54
2022/05/07 02:02:34;;;;;;;25.43;16.53;;;;;;;;;;5012916;28;20415;-54
2022/05/07 02:05:02;;;;;;;22.40;17.30;;;;;;;;;;5012658;28;20453;-56
2022/05/07 02:07:28;;;;;;;25.20;16.70;;;;;;;;;;5012808;28;20952;-55
2022/05/07 02:09:54;;;;;;;20.80;15.53;;;;;;;;;;5012668;28;20433;-56
2022/05/07 02:12:19;;;;;;;19.87;16.07;;;;;;;;;;5012645;28;20428;-55
2022/05/07 02:14:46;;;;;;;32.53;16.03;;;;;;;;;;4995240;28;20413;-52
2022/05/07 02:17:12;;;;;;;21.00;14.83;;;;;;;;;;5012788;28;20410;-54
2022/05/07 02:19:38;;;;;;;20.50;16.77;;;;;;;;;;5012578;28;20484;-53
2022/05/07 02:22:04;;;;;;;19.33;15.67;;;;;;;;;;4994696;28;20465;-53
2022/05/07 02:24:30;;;;;;;18.70;15.00;;;;;;;;;;5012506;28;20504;-55
2022/05/07 02:26:56;;;;;;;26.93;13.53;;;;;;;;;;5012250;28;20553;-52
2022/05/07 02:29:22;;;;;;;18.00;14.40;;;;;;;;;;5012319;28;20775;-56
2022/05/07 02:32:03;;;;;;;17.33;14.13;;;;;;;;;;4994808;28;20422;-54
2022/05/07 02:34:32;;;;;;;19.03;14.47;;;;;;;;;;5012126;28;20415;-52
2022/05/07 02:37:01;;;;;;;27.40;14.90;;;;;;;;;;5012157;28;20420;-56
2022/05/07 02:39:27;;;;;;;20.67;15.43;;;;;;;;;;4994862;28;20510;-52
2022/05/07 02:44:39;;;;;;;22.73;13.53;;;;;;;;;;5011774;28;20416;-53
2022/05/07 02:47:05;;;;;;;16.47;14.07;;;;;;;;;;5011943;28;20499;-52
2022/05/07 02:49:32;;;;;;;19.53;14.37;;;;;;;;;;5011928;28;20406;-53
2022/05/07 02:51:58;;;;;;;17.53;13.70;;;;;;;;;;5011883;28;20421;-59
2022/05/07 02:54:24;;;;;;;16.73;13.10;;;;;;;;;;5011827;28;20402;-50
2022/05/07 02:56:50;;;;;;;18.87;13.10;;;;;;;;;;5011962;28;20417;-54
2022/05/07 02:59:16;;;;;;;22.40;13.17;;;;;;;;;;5011929;28;20412;-51
2022/05/07 03:01:42;;;;;;;15.27;13.00;;;;;;;;;;5012017;28;20775;-50
2022/05/07 03:04:08;;;;;;;21.17;13.70;;;;;;;;;;5011852;28;20421;-50
2022/05/07 03:06:34;;;;;;;19.47;13.17;;;;;;;;;;5011801;28;20469;-50
2022/05/07 03:09:01;;;;;;;22.33;13.50;;;;;;;;;;5011853;28;20943;-50
2022/05/07 03:11:27;;;;;;;17.37;13.07;;;;;;;;;;5011695;28;20467;-53
2022/05/07 03:13:53;;;;;;;18.80;13.60;;;;;;;;;;5011616;28;20416;-50
2022/05/07 03:16:19;;;;;;;18.43;13.40;;;;;;;;;;5011558;28;20492;-51
2022/05/07 03:18:45;;;;;;;22.30;13.23;;;;;;;;;;5011781;28;20950;-52
2022/05/07 03:21:11;;;;;;;18.40;13.07;;;;;;;;;;5011371;28;20457;-51
2022/05/07 03:23:37;;;;;;;19.03;13.90;;;;;;;;;;5011562;28;20405;-55
2022/05/07 03:26:03;;;;;;;18.33;12.93;;;;;;;;;;4994106;28;20480;-54
2022/05/07 03:28:29;;;;;;;18.17;12.67;;;;;;;;;;5011371;28;20401;-53
2022/05/07 03:30:55;;;;;;;19.60;13.47;;;;;;;;;;5011498;28;20416;-54
2022/05/07 03:33:25;;;;;;;21.20;14.03;;;;;;;;;;4993751;28;20410;-52
2022/05/07 03:35:51;;;;;;;21.80;12.43;;;;;;;;;;5011291;28;20418;-54
2022/05/07 03:38:17;;;;;;;20.60;12.40;;;;;;;;;;5011317;28;20416;-53
2022/05/07 03:40:43;;;;;;;19.63;13.40;;;;;;;;;;5011417;28;20505;-53
2022/05/07 03:43:09;;;;;;;21.77;13.20;;;;;;;;;;5011272;28;20561;-55
2022/05/07 03:45:35;;;;;;;20.37;13.20;;;;;;;;;;5011043;28;20821;-52
2022/05/07 03:48:01;;;;;;;17.03;11.57;;;;;;;;;;4993381;28;20582;-54
2022/05/07 03:50:27;;;;;;;24.03;12.93;;;;;;;;;;4993586;28;20773;-53
2022/05/07 03:55:41;;;;;;;21.53;13.13;;;;;;;;;;5009999;28;20793;-52
2022/05/07 03:58:11;;;;;;;16.10;12.33;;;;;;;;;;5011095;28;20434;-55
2022/05/07 04:00:37;;;;;;;15.03;12.30;;;;;;;;;;5011041;28;20987;-53
2022/05/07 04:03:04;;;;;;;14.60;12.40;;;;;;;;;;5010970;28;20402;-57
2022/05/07 04:05:30;;;;;;;16.30;12.13;;;;;;;;;;5010780;28;20783;-55
2022/05/07 04:07:56;;;;;;;20.40;11.63;;;;;;;;;;5010767;28;20417;-62
2022/05/07 04:10:22;;;;;;;22.50;11.43;;;;;;;;;;5010775;28;20465;-72
2022/05/07 04:12:51;;;;;;;19.80;11.60;;;;;;;;;;5010715;28;20417;-68
2022/05/07 04:15:17;;;;;;;19.53;11.80;;;;;;;;;;5010718;28;20414;-52
2022/05/07 04:17:43;;;;;;;23.23;12.60;;;;;;;;;;5010968;28;20414;-66
2022/05/07 04:20:09;;;;;;;16.30;11.50;;;;;;;;;;5010617;28;20968;-68
2022/05/07 04:22:36;;;;;;;15.03;10.60;;;;;;;;;;5010586;28;20456;-68
2022/05/07 04:25:02;;;;;;;21.20;11.03;;;;;;;;;;5010573;28;20449;-59
2022/05/07 04:27:28;;;;;;;17.27;12.13;;;;;;;;;;5010482;28;20509;-64
2022/05/07 04:29:54;;;;;;;14.30;11.77;;;;;;;;;;5010548;28;20448;-64
2022/05/07 04:32:20;;;;;;;21.07;11.57;;;;;;;;;;5010462;28;20417;-68
2022/05/07 04:34:46;;;;;;;21.97;11.93;;;;;;;;;;5010646;28;20771;-64
2022/05/07 04:37:15;;;;;;;23.27;11.30;;;;;;;;;;5010546;28;20467;-57
2022/05/07 04:39:41;;;;;;;18.37;11.33;;;;;;;;;;5010321;28;20488;-53
2022/05/07 04:42:07;;;;;;;19.23;11.30;;;;;;;;;;5010193;28;20468;-52
2022/05/07 04:44:33;;;;;;;22.80;10.47;;;;;;;;;;5010288;28;20459;-51
2022/05/07 04:46:59;;;;;;;18.50;10.90;;;;;;;;;;5010137;28;20473;-53
2022/05/07 04:49:25;;;;;;;19.33;11.37;;;;;;;;;;5010310;28;20406;-57
2022/05/07 04:51:52;;;;;;;18.40;10.23;;;;;;;;;;5010143;28;20516;-53
2022/05/07 04:54:21;;;;;;;14.00;10.57;;;;;;;;;;5010125;28;20421;-52
2022/05/07 04:56:50;;;;;;;16.33;10.57;;;;;;;;;;4992586;28;20524;-53
2022/05/07 04:59:19;;;;;;;11.53;10.30;;;;;;;;;;5010251;28;20770;-58
2022/05/07 05:01:45;;;;;;;14.93;10.90;;;;;;;;;;5010127;28;20414;-55
2022/05/07 05:04:12;;;;;;;14.50;10.60;;;;;;;;;;5009842;28;20410;-56
2022/05/07 05:06:41;;;;;;;14.07;11.43;;;;;;;;;;5009683;28;20568;-55
2022/05/07 05:09:07;;;;;;;14.67;11.07;;;;;;;;;;5010098;28;21823;-64
2022/05/07 05:11:39;;;;;;;15.13;11.60;;;;;;;;;;5010079;28;20774;-54
2022/05/07 05:16:52;;;;;;;15.03;9.90;;;;;;;;;;4989112;28;20758;-55
2022/05/07 05:19:19;;;;;;;12.33;10.37;;;;;;;;;;5009840;28;20412;-55
2022/05/07 05:21:46;;;;;;;12.40;11.00;;;;;;;;;;4992288;28;20836;-54
2022/05/07 05:24:12;;;;;;;11.37;10.27;;;;;;;;;;5009777;28;20467;-54
2022/05/07 05:26:38;;;;;;;14.80;10.10;;;;;;;;;;5009621;28;20501;-55
2022/05/07 05:29:07;;;;;;;14.83;11.10;;;;;;;;;;5009659;28;20754;-54
2022/05/07 05:31:33;;;;;;;19.07;11.23;;;;;;;;;;5009718;28;20410;-55
2022/05/07 05:33:59;;;;;;;15.37;11.20;;;;;;;;;;5009621;28;20485;-51
2022/05/07 05:36:30;;;;;;;13.83;10.70;;;;;;;;;;5009647;28;20418;-54
2022/05/07 05:38:56;;;;;;;14.67;10.60;;;;;;;;;;5009678;28;20969;-53
2022/05/07 05:41:22;;;;;;;12.13;10.40;;;;;;;;;;5009562;28;20453;-53
2022/05/07 05:43:48;;;;;;;13.33;10.57;;;;;;;;;;5009658;28;20859;-52
2022/05/07 05:46:14;;;;;;;14.53;10.20;;;;;;;;;;5009505;28;20488;-53
2022/05/07 05:48:40;;;;;;;17.67;10.70;;;;;;;;;;5008352;28;20413;-56
2022/05/07 05:51:07;;;;;;;14.90;10.60;;;;;;;;;;5008694;28;20924;-52
2022/05/07 05:53:33;;;;;;;12.83;11.50;;;;;;;;;;5008477;28;20412;-52
2022/05/07 05:56:00;;;;;;;11.57;10.30;;;;;;;;;;5008239;28;20417;-54
2022/05/07 05:58:32;;;;;;;18.30;10.00;;;;;;;;;;5008251;28;20766;-54
2022/05/07 06:00:59;;;;;;;21.60;11.53;;;;;;;;;;5008251;28;20469;-53
2022/05/07 06:03:25;;;;;;;18.07;12.50;;;;;;;;;;5008461;28;20496;-53
2022/05/07 06:05:51;;;;;;;12.93;11.50;;;;;;;;;;5008051;28;20485;-54
2022/05/07 06:08:17;;;;;;;13.90;11.10;;;;;;;;;;5008412;28;21167;-55
2022/05/07 06:10:43;;;;;;;17.77;11.60;;;;;;;;;;5008328;28;20508;-54
2022/05/07 06:13:12;;;;;;;22.60;11.63;;;;;;;;;;5008151;28;20501;-52
2022/05/07 06:15:38;;;;;;;13.97;11.93;;;;;;;;;;5008198;28;20475;-55
2022/05/07 06:18:04;;;;;;;23.47;11.70;;;;;;;;;;5008115;28;20410;-57
2022/05/07 06:20:31;;;;;;;17.83;12.67;;;;;;;;;;5011456;28;20474;-56
2022/05/07 06:23:03;;;;;;;14.00;11.30;;;;;;;;;;5011414;28;20422;-57
2022/05/07 06:28:13;;;;;;;16.20;11.30;;;;;;;;;;5011620;28;20416;-58
2022/05/07 06:30:40;;;;;;;12.53;10.73;;;;;;;;;;5012271;28;20417;-53
2022/05/07 06:33:06;;;;;;;13.77;11.50;;;;;;;;;;5012193;28;20442;-57
2022/05/07 06:35:33;;;;;;;20.83;11.57;;;;;;;;;;5012188;28;20773;-53
2022/05/07 06:37:59;;;;;;;13.00;10.73;;;;;;;;;;5012197;28;20410;-55
2022/05/07 06:40:25;;;;;;;11.87;9.63;;;;;;;;;;5012277;28;20788;-57
2022/05/07 06:42:51;;;;;;;12.30;10.30;;;;;;;;;;5012159;28;20424;-57
2022/05/07 06:45:17;;;;;;;13.87;10.13;;;;;;;;;;5012186;28;20943;-54
2022/05/07 06:47:43;;;;;;;12.67;9.67;;;;;;;;;;5012186;28;20414;-55
2022/05/07 06:50:09;;;;;;;10.97;9.20;;;;;;;;;;5012002;28;20637;-54
2022/05/07 06:52:45;;;;;;;12.23;10.00;;;;;;;;;;5011677;28;20442;-56
2022/05/07 06:55:14;;;;;;;11.37;9.47;;;;;;;;;;5011700;28;20413;-54
2022/05/07 06:57:40;;;;;;;13.67;9.50;;;;;;;;;;5011773;28;20406;-54
2022/05/07 07:00:07;;;;;;;12.23;9.87;;;;;;;;;;5011834;28;20410;-58
2022/05/07 07:02:33;;;;;;;11.70;9.00;;;;;;;;;;4994282;28;20427;-66
2022/05/07 07:05:00;;;;;;;9.23;8.17;;;;;;;;;;5011633;28;20429;-68
2022/05/07 07:07:26;;;;;;;12.33;9.50;;;;;;;;;;5011760;28;20268;-62
2022/05/07 07:09:52;;;;;;;13.47;8.60;;;;;;;;;;5011597;28;20477;-68
2022/05/07 07:12:20;;;;;;;11.27;8.57;;;;;;;;;;5011448;28;20457;-67
2022/05/07 07:14:47;;;;;;;15.07;8.53;;;;;;;;;;5011698;28;20765;-61
2022/05/07 07:17:13;;;;;;;11.03;9.00;;;;;;;;;;4994191;28;20786;-65
2022/05/07 07:19:41;;;;;;;14.23;9.73;;;;;;;;;;5011214;28;20445;-65
2022/05/07 07:22:07;;;;;;;10.37;9.00;;;;;;;;;;5011385;28;20460;-61
2022/05/07 07:24:34;;;;;;;14.83;10.13;;;;;;;;;;5011396;28;20509;-64
2022/05/07 07:27:00;;;;;;;13.20;9.10;;;;;;;;;;5011161;28;20476;-66
2022/05/07 07:29:26;;;;;;;15.40;9.50;;;;;;;;;;5011307;28;20410;-60
2022/05/07 07:31:55;;;;;;;11.40;9.17;;;;;;;;;;5011221;28;20924;-58
2022/05/07 07:34:23;;;;;;;12.17;8.80;;;;;;;;;;5011330;28;20467;-59
2022/05/07 07:36:52;;;;;;;11.07;8.57;;;;;;;;;;5011274;28;20448;-56
2022/05/07 07:39:19;;;;;;;17.90;9.10;;;;;;;;;;5011205;28;20420;-56
2022/05/07 07:41:45;;;;;;;10.30;7.70;;;;;;;;;;5011375;28;20418;-64
2022/05/07 07:44:12;;;;;;;16.87;8.47;;;;;;;;;;5011089;28;20413;-58
2022/05/07 07:49:23;;;;;;;13.77;7.30;;;;;;;;;;5011258;28;20475;-57
2022/05/07 07:51:49;;;;;;;8.40;6.93;;;;;;;;;;5011106;28;20409;-60
2022/05/07 07:54:15;;;;;;;9.87;6.07;;;;;;;;;;5011154;28;20452;-58
2022/05/07 07:56:43;;;;;;;7.23;6.17;;;;;;;;;;5010920;28;20441;-53
2022/05/07 07:59:09;;;;;;;8.10;6.00;;;;;;;;;;5010681;28;20398;-54
2022/05/07 08:01:35;;;;;;;6.13;5.53;;;;;;;;;;4993149;28;20429;-65
2022/05/07 08:04:01;;;;;;;11.63;5.60;;;;;;;;;;5010691;28;20409;-62
2022/05/07 08:06:30;;;;;;;6.83;5.70;;;;;;;;;;5010768;28;20469;-58
2022/05/07 08:11:40;;;;;;;9.53;5.27;;;;;;;;;;5011191;28;20417;-57
2022/05/07 08:14:07;;;;;;;8.43;6.00;;;;;;;;;;5010782;28;20406;-56
2022/05/07 08:16:34;;;;;;;6.17;5.53;;;;;;;;;;5010843;28;20405;-60
2022/05/07 08:19:00;;;;;;;13.63;5.87;;;;;;;;;;5010562;28;20406;-59
2022/05/07 08:21:27;;;;;;;8.30;6.10;;;;;;;;;;5010527;28;20536;-57
2022/05/07 08:23:53;;;;;;;8.57;6.40;;;;;;;;;;4993199;28;20471;-55
2022/05/07 08:26:19;;;;;;;8.83;5.57;;;;;;;;;;5010473;28;20473;-58
2022/05/07 08:28:45;;;;;;;7.33;6.03;;;;;;;;;;4993162;28;20497;-53
2022/05/07 08:31:13;;;;;;;6.07;5.47;;;;;;;;;;4993231;28;20450;-56
2022/05/07 08:33:43;;;;;;;9.50;5.50;;;;;;;;;;5010680;28;20444;-58
2022/05/07 08:36:10;;;;;;;5.73;5.20;;;;;;;;;;5010525;28;20905;-60
2022/05/07 08:38:37;;;;;;;8.43;5.97;;;;;;;;;;5010183;28;20410;-52
2022/05/07 08:41:03;;;;;;;6.50;5.40;;;;;;;;;;4992326;28;20428;-59
2022/05/07 08:43:39;;;;;;;5.60;5.10;;;;;;;;;;4992483;28;20432;-64
2022/05/07 08:46:13;;;;;;;7.63;6.70;;;;;;;;;;5009544;28;20473;-57
2022/05/07 08:48:40;;;;;;;6.27;5.30;;;;;;;;;;5009729;28;20409;-56
2022/05/07 08:51:06;;;;;;;6.60;5.20;;;;;;;;;;5010127;28;20419;-60
2022/05/07 08:53:32;;;;;;;7.23;5.37;;;;;;;;;;5008825;28;20406;-64
2022/05/07 08:55:58;;;;;;;5.57;5.03;;;;;;;;;;5009061;28;20913;-68
2022/05/07 08:58:24;;;;;;;5.73;5.30;;;;;;;;;;5008874;28;20410;-53
2022/05/07 09:00:50;;;;;;;6.53;5.93;;;;;;;;;;5010041;28;20909;-55
2022/05/07 09:03:17;;;;;;;11.63;5.90;;;;;;;;;;5009220;28;20490;-62
2022/05/07 09:05:43;;;;;;;10.13;5.40;;;;;;;;;;5010141;28;20965;-63
2022/05/07 09:08:12;;;;;;;5.40;4.90;;;;;;;;;;4976361;28;20429;-58
2022/05/07 09:10:39;;;;;;;7.10;5.07;;;;;;;;;;5009829;28;20468;-58
2022/05/07 09:13:11;;;;;;;5.00;4.60;;;;;;;;;;4992295;28;20921;-57
2022/05/07 09:15:48;;;;;;;8.23;5.20;;;;;;;;;;5010082;28;20414;-54
2022/05/07 09:18:15;;;;;;;5.13;4.70;;;;;;;;;;5009661;28;20409;-52
2022/05/07 09:20:41;;;;;;;5.57;5.10;;;;;;;;;;4992090;28;20833;-53
2022/05/07 09:23:10;;;;;;;8.03;4.77;;;;;;;;;;5009864;28;20433;-53
2022/05/07 09:25:43;;;;;;;5.20;4.80;;;;;;;;;;5009491;28;20477;-59
2022/05/07 09:28:09;;;;;;;5.57;5.00;;;;;;;;;;5009638;28;20850;-55
2022/05/07 09:30:41;;;;;;;6.87;4.80;;;;;;;;;;5009669;28;20401;-52
2022/05/07 09:33:07;;;;;;;4.63;4.23;;;;;;;;;;5009626;28;21191;-56
2022/05/07 09:35:49;;;;;;;7.33;5.23;;;;;;;;;;5018626;28;20405;-54
2022/05/07 09:38:16;;;;;;;13.37;5.30;;;;;;;;;;5029430;28;20924;-57
2022/05/07 09:40:43;;;;;;;5.27;4.80;;;;;;;;;;5029088;28;20404;-55
2022/05/07 09:43:09;;;;;;;6.40;5.00;;;;;;;;;;5024122;28;20977;-61
2022/05/07 09:45:37;;;;;;;7.00;4.87;;;;;;;;;;5009432;28;20457;-54
2022/05/07 09:48:03;;;;;;;5.60;5.20;;;;;;;;;;5009521;28;20425;-53
2022/05/07 09:58:33;;;;;;;7.60;6.40;;;;;;;;;;5011161;28;20413;-58
2022/05/07 10:01:14;;;;;;;5.63;5.13;;;;;;;;;;5012828;28;20398;-55
2022/05/07 10:03:51;;;;;;;8.83;5.07;;;;;;;;;;5012754;28;20421;-55
2022/05/07 10:06:35;;;;;;;4.67;4.30;;;;;;;;;;5011630;28;20983;-57
2022/05/07 10:09:15;;;;;;;5.97;4.90;;;;;;;;;;5018556;28;20393;-68
2022/05/07 10:11:41;;;;;;;5.17;4.77;;;;;;;;;;5022768;28;20900;-60
2022/05/07 10:14:10;;;;;;;5.67;5.10;;;;;;;;;;5021882;28;20500;-61
2022/05/07 10:16:36;;;;;;;5.10;4.70;;;;;;;;;;5020729;28;20417;-65
2022/05/07 10:19:12;;;;;;;5.33;4.83;;;;;;;;;;5022420;28;20501;-61
2022/05/07 10:21:39;;;;;;;5.30;4.90;;;;;;;;;;5022591;28;20542;-53
2022/05/07 10:24:05;;;;;;;5.57;5.17;;;;;;;;;;5021480;28;20429;-55
2022/05/07 10:26:41;;;;;;;9.60;5.37;;;;;;;;;;5021197;28;20471;-55
2022/05/07 10:29:11;;;;;;;4.80;4.20;;;;;;;;;;5021727;28;20405;-56
2022/05/07 10:31:44;;;;;;;5.10;4.80;;;;;;;;;;5020508;28;20394;-61
2022/05/07 10:34:10;;;;;;;7.93;5.07;;;;;;;;;;5021295;28;20460;-69
2022/05/07 10:36:36;;;;;;;5.40;4.93;;;;;;;;;;5004980;28;20444;-59
2022/05/07 10:39:09;;;;;;;8.90;4.57;;;;;;;;;;5020898;28;20808;-58
2022/05/07 10:41:46;;;;;;;7.93;5.80;;;;;;;;;;5023462;28;20402;-66
2022/05/07 10:44:12;;;;;;;5.37;4.87;;;;;;;;;;5022446;28;20416;-55
2022/05/07 10:46:39;;;;;;;4.70;4.40;;;;;;;;;;5022955;28;20947;-66
2022/05/07 10:49:05;;;;;;;4.90;4.20;;;;;;;;;;5021151;28;20454;-58
2022/05/07 10:51:50;;;;;;;4.80;4.50;;;;;;;;;;5015715;28;20417;-63
2022/05/07 10:54:18;;;;;;;6.80;4.60;;;;;;;;;;5012138;28;20417;-57
2022/05/07 10:56:53;;;;;;;5.03;4.53;;;;;;;;;;5012009;28;20987;-55
2022/05/07 10:59:20;;;;;;;4.83;4.43;;;;;;;;;;5011849;28;20440;-61
2022/05/07 11:01:46;;;;;;;4.50;4.20;;;;;;;;;;4994356;28;20433;-55
2022/05/07 11:04:13;;;;;;;5.13;4.43;;;;;;;;;;4993928;28;20955;-58
2022/05/07 11:06:45;;;;;;;5.10;4.60;;;;;;;;;;5011641;28;20473;-54
2022/05/07 11:09:15;;;;;;;8.27;4.13;;;;;;;;;;5011711;28;20530;-57
2022/05/07 11:11:45;;;;;;;4.70;4.30;;;;;;;;;;5011672;28;20909;-58
2022/05/07 11:14:20;;;;;;;4.47;4.17;;;;;;;;;;4993910;28;20444;-57
2022/05/07 11:16:46;;;;;;;4.73;4.43;;;;;;;;;;5011684;28;20409;-69
2022/05/07 11:19:22;;;;;;;5.73;4.33;;;;;;;;;;5011492;28;20412;-67
2022/05/07 11:21:52;;;;;;;8.83;4.43;;;;;;;;;;5011349;28;20457;-63
2022/05/07 11:24:21;;;;;;;4.10;3.80;;;;;;;;;;5011377;28;20414;-59
2022/05/07 11:26:55;;;;;;;5.80;4.10;;;;;;;;;;4993852;28;20548;-65
2022/05/07 11:29:21;;;;;;;4.23;3.63;;;;;;;;;;5011350;28;20413;-61
2022/05/07 11:31:54;;;;;;;4.80;3.60;;;;;;;;;;5011581;28;20451;-62
2022/05/07 11:34:28;;;;;;;3.93;3.73;;;;;;;;;;5011366;28;20966;-64
2022/05/07 11:36:54;;;;;;;3.93;3.70;;;;;;;;;;5011305;28;20427;-70
2022/05/07 11:39:24;;;;;;;4.13;3.83;;;;;;;;;;5011360;28;20401;-67
2022/05/07 11:41:57;;;;;;;7.10;4.27;;;;;;;;;;5011060;28;20414;-66
2022/05/07 11:47:20;;;;;;;5.30;3.90;;;;;;;;;;5011064;28;20518;-64
2022/05/07 11:49:49;;;;;;;8.10;4.30;;;;;;;;;;5011423;28;20459;-60
2022/05/07 11:52:15;;;;;;;7.37;4.10;;;;;;;;;;4993618;28;20789;-59
2022/05/07 11:54:51;;;;;;;4.40;4.10;;;;;;;;;;5010727;28;20993;-60
2022/05/07 11:57:30;;;;;;;5.87;3.40;;;;;;;;;;5011228;28;20440;-55
2022/05/07 11:59:56;;;;;;;6.83;4.17;;;;;;;;;;5013543;28;20413;-59
2022/05/07 12:02:23;;;;;;;5.47;3.43;;;;;;;;;;5024244;28;20411;-54
2022/05/07 12:04:58;;;;;;;4.23;3.90;;;;;;;;;;5030624;28;20504;-56
2022/05/07 12:07:24;;;;;;;3.93;3.63;;;;;;;;;;5013197;28;20455;-55
2022/05/07 12:09:50;;;;;;;3.57;3.30;;;;;;;;;;5013038;28;20440;-54
2022/05/07 12:12:19;;;;;;;3.73;3.20;;;;;;;;;;5018481;28;20442;-57
2022/05/07 12:14:45;;;;;;;3.53;3.33;;;;;;;;;;4993354;28;20179;-57
2022/05/07 12:19:56;;;;;;;3.53;3.33;;;;;;;;;;5010559;28;20924;-63
2022/05/07 12:30:38;;;;;;;3.27;3.07;;;;;;;;;;5010652;28;20617;-56
2022/05/07 12:33:04;;;;;;;2.80;2.33;;;;;;;;;;5026355;28;20463;-61
2022/05/07 12:35:30;;;;;;;8.47;3.40;;;;;;;;;;5021604;28;20477;-59
2022/05/07 12:37:56;;;;;;;3.27;3.00;;;;;;;;;;5022882;28;20496;-55
2022/05/07 12:40:23;;;;;;;4.13;2.93;;;;;;;;;;5004143;28;20496;-55
2022/05/07 12:42:49;;;;;;;2.97;2.77;;;;;;;;;;5021728;28;20410;-63
2022/05/07 12:45:15;;;;;;;3.37;2.50;;;;;;;;;;5019647;28;20410;-61
2022/05/07 12:47:41;;;;;;;3.77;2.67;;;;;;;;;;5000649;28;20433;-62
2022/05/07 12:50:07;;;;;;;3.10;2.97;;;;;;;;;;5010477;28;20401;-61
2022/05/07 12:52:33;;;;;;;10.30;3.00;;;;;;;;;;5021862;28;20904;-58
2022/05/07 12:54:59;;;;;;;3.57;2.63;;;;;;;;;;5026670;28;20979;-54
2022/05/07 12:57:25;;;;;;;3.17;2.97;;;;;;;;;;5010183;28;20439;-53
2022/05/07 12:59:52;;;;;;;3.13;2.63;;;;;;;;;;5010165;28;20831;-58
2022/05/07 13:02:19;;;;;;;3.83;3.00;;;;;;;;;;5014249;28;20578;-57
2022/05/07 13:04:45;;;;;;;6.20;3.03;;;;;;;;;;5003871;28;20505;-64
2022/05/07 13:07:11;;;;;;;2.83;2.27;;;;;;;;;;5029669;28;20701;-56
2022/05/07 13:09:40;;;;;;;5.00;2.53;;;;;;;;;;5020977;28;20419;-62
2022/05/07 13:12:07;;;;;;;2.73;2.53;;;;;;;;;;5020486;28;20969;-54
2022/05/07 13:14:35;;;;;;;6.57;2.77;;;;;;;;;;5019670;28;20419;-58
2022/05/07 13:17:05;;;;;;;2.60;2.33;;;;;;;;;;4990644;28;20425;-55
2022/05/07 13:19:31;;;;;;;3.70;2.60;;;;;;;;;;5017826;28;20480;-58
2022/05/07 13:21:57;;;;;;;2.53;2.43;;;;;;;;;;5021716;28;20500;-57
2022/05/07 13:24:23;;;;;;;3.00;2.80;;;;;;;;;;5029504;28;20440;-55
2022/05/07 13:26:49;;;;;;;2.63;2.40;;;;;;;;;;5011570;28;20281;-61
2022/05/07 13:29:15;;;;;;;4.30;2.83;;;;;;;;;;5035563;28;20414;-56
2022/05/07 13:31:41;;;;;;;4.60;2.63;;;;;;;;;;5036044;28;20407;-55
2022/05/07 13:34:07;;;;;;;3.37;3.07;;;;;;;;;;5018202;28;20419;-63
2022/05/07 13:36:34;;;;;;;3.67;2.33;;;;;;;;;;5036015;28;20489;-55
2022/05/07 13:39:01;;;;;;;5.37;2.30;;;;;;;;;;5018110;28;20523;-63
2022/05/07 13:41:28;;;;;;;3.60;2.20;;;;;;;;;;5031162;28;20407;-61
2022/05/07 13:43:56;;;;;;;2.77;2.57;;;;;;;;;;5015985;28;20428;-57
2022/05/07 13:46:22;;;;;;;2.50;2.30;;;;;;;;;;4998456;28;20866;-58
2022/05/07 13:48:48;;;;;;;3.47;2.50;;;;;;;;;;5016053;28;20977;-63
2022/05/07 13:51:14;;;;;;;2.47;2.37;;;;;;;;;;5024024;28;20460;-63
2022/05/07 13:53:40;;;;;;;6.77;2.57;;;;;;;;;;5026439;28;20397;-59
2022/05/07 13:56:09;;;;;;;3.13;2.60;;;;;;;;;;5024638;28;20875;-55
2022/05/07 13:58:41;;;;;;;2.77;2.50;;;;;;;;;;5024500;28;20405;-56
2022/05/07 14:01:08;;;;;;;3.70;3.27;;;;;;;;;;5015799;28;20427;-57
2022/05/07 14:03:34;;;;;;;2.50;2.30;;;;;;;;;;4998091;28;20416;-53
2022/05/07 14:06:00;;;;;;;2.63;2.50;;;;;;;;;;5015759;28;20820;-55
2022/05/07 14:08:27;;;;;;;2.60;2.40;;;;;;;;;;5015636;28;20905;-61
2022/05/07 14:10:53;;;;;;;3.63;2.80;;;;;;;;;;5015797;28;20482;-61
2022/05/07 14:13:19;;;;;;;3.60;3.13;;;;;;;;;;5015859;28;20424;-54
2022/05/07 14:15:45;;;;;;;6.50;2.73;;;;;;;;;;5015945;28;20932;-60
2022/05/07 14:18:11;;;;;;;4.70;2.40;;;;;;;;;;4998478;28;20421;-59
2022/05/07 14:20:37;;;;;;;3.13;2.83;;;;;;;;;;4997981;28;20647;-61
2022/05/07 14:23:03;;;;;;;2.50;2.30;;;;;;;;;;5015566;28;20917;-57
2022/05/07 14:25:30;;;;;;;2.53;2.40;;;;;;;;;;5015435;28;20456;-53
2022/05/07 14:27:55;;;;;;;4.13;2.70;;;;;;;;;;5015719;28;20412;-54
2022/05/07 14:30:22;;;;;;;2.63;2.27;;;;;;;;;;4998086;28;20754;-57
2022/05/07 14:32:47;;;;;;;8.73;2.80;;;;;;;;;;5015521;28;20166;-56
2022/05/07 14:35:14;;;;;;;4.23;2.67;;;;;;;;;;5015725;28;20409;-56
2022/05/07 14:37:40;;;;;;;2.30;2.20;;;;;;;;;;5015509;28;20237;-58
2022/05/07 14:43:02;;;;;;;2.70;2.30;;;;;;;;;;5023068;28;20435;-55
2022/05/07 14:45:29;;;;;;;3.10;2.50;;;;;;;;;;4999712;28;20448;-56
2022/05/07 14:47:55;;;;;;;2.87;2.67;;;;;;;;;;5011389;28;20992;-64
2022/05/07 14:50:25;;;;;;;3.87;2.97;;;;;;;;;;5016464;28;20757;-54
2022/05/07 14:52:51;;;;;;;3.53;3.30;;;;;;;;;;5014522;28;20452;-54
2022/05/07 14:55:18;;;;;;;2.80;2.70;;;;;;;;;;5023753;28;20420;-52
2022/05/07 14:57:44;;;;;;;4.63;2.77;;;;;;;;;;5031825;28;20785;-61
2022/05/07 15:00:10;;;;;;;11.40;2.80;;;;;;;;;;5013903;28;20420;-62
2022/05/07 15:02:37;;;;;;;3.17;2.60;;;;;;;;;;5031441;28;20426;-56
2022/05/07 15:05:03;;;;;;;11.53;2.70;;;;;;;;;;5031474;28;20961;-51
2022/05/07 15:07:30;;;;;;;1.93;1.83;;;;;;;;;;5031749;28;20467;-52
2022/05/07 15:12:40;;;;;;;2.30;2.20;;;;;;;;;;5031662;28;20453;-52
2022/05/07 15:15:07;;;;;;;3.57;2.10;;;;;;;;;;5031741;28;20408;-54
2022/05/07 15:17:33;;;;;;;4.60;2.27;;;;;;;;;;5030360;28;20161;-52
2022/05/07 15:19:59;;;;;;;2.47;2.27;;;;;;;;;;5030598;28;20432;-55
2022/05/07 15:22:27;;;;;;;2.50;2.40;;;;;;;;;;5030671;28;20927;-54
2022/05/07 15:24:53;;;;;;;2.47;2.20;;;;;;;;;;5013652;28;20563;-53